Time;durP1;ratioP1;P1;durP2;ratioP2;P2;SDS_P1;SDS_P2;PMS_P1;PMS_P2;Temp;Humidity;BMP_temperature;BMP_pressure;BME280_temperature;BME280_humidity;BME280_pressure;Samples;Min_cycle;Max_cycle;Signal;HPM_P1;HPM_P2
2023/08/12 00:00:51;;;;;;;7.43;3.78;;;;;;;;;;5072924;28;20033;-71
2023/08/12 00:03:17;;;;;;;4.88;3.72;;;;;;;;;;5071732;28;20060;-72
2023/08/12 00:05:43;;;;;;;5.57;4.03;;;;;;;;;;5073161;28;20103;-72
2023/08/12 00:08:09;;;;;;;5.65;3.55;;;;;;;;;;5072322;28;20036;-72
2023/08/12 00:10:35;;;;;;;6.20;3.67;;;;;;;;;;5073044;28;20020;-72
2023/08/12 00:13:01;;;;;;;7.18;4.15;;;;;;;;;;5072706;28;20534;-72
2023/08/12 00:15:27;;;;;;;9.25;4.07;;;;;;;;;;5073019;28;20104;-72
2023/08/12 00:17:53;;;;;;;10.88;4.45;;;;;;;;;;5072183;28;20694;-71
2023/08/12 00:20:20;;;;;;;7.97;4.07;;;;;;;;;;5071507;28;20126;-73
2023/08/12 00:22:45;;;;;;;7.05;4.13;;;;;;;;;;5072578;28;20403;-72
2023/08/12 00:25:12;;;;;;;6.68;3.97;;;;;;;;;;5069205;28;20025;-73
2023/08/12 00:27:38;;;;;;;7.43;4.70;;;;;;;;;;5051915;28;20029;-72
2023/08/12 00:30:04;;;;;;;7.53;4.32;;;;;;;;;;5052528;28;20033;-74
2023/08/12 00:32:30;;;;;;;7.20;4.10;;;;;;;;;;5052435;28;20472;-74
2023/08/12 00:34:56;;;;;;;6.45;4.53;;;;;;;;;;5052522;28;20032;-73
2023/08/12 00:37:22;;;;;;;6.32;4.22;;;;;;;;;;5051922;28;20481;-74
2023/08/12 00:39:48;;;;;;;9.35;4.38;;;;;;;;;;5050404;28;20032;-74
2023/08/12 00:42:14;;;;;;;12.57;4.60;;;;;;;;;;5052293;28;20025;-72
2023/08/12 00:44:40;;;;;;;5.60;4.18;;;;;;;;;;5052312;28;20488;-71
2023/08/12 00:47:06;;;;;;;6.53;4.25;;;;;;;;;;5051371;28;20033;-71
2023/08/12 00:49:33;;;;;;;8.25;4.80;;;;;;;;;;5052652;28;20573;-71
2023/08/12 00:52:01;;;;;;;7.03;4.30;;;;;;;;;;5050856;28;20029;-71
2023/08/12 00:54:27;;;;;;;8.00;4.78;;;;;;;;;;5052491;28;20121;-72
2023/08/12 00:56:53;;;;;;;5.50;4.00;;;;;;;;;;5052456;28;20044;-73
2023/08/12 00:59:20;;;;;;;5.45;3.95;;;;;;;;;;5052823;28;20021;-72
2023/08/12 01:01:47;;;;;;;5.72;4.00;;;;;;;;;;5052086;28;20033;-73
2023/08/12 01:04:13;;;;;;;7.50;3.92;;;;;;;;;;5052558;28;20021;-72
2023/08/12 01:06:39;;;;;;;10.20;4.55;;;;;;;;;;5054639;28;20021;-75
2023/08/12 01:09:06;;;;;;;5.72;4.05;;;;;;;;;;5052662;28;20025;-73
2023/08/12 01:11:32;;;;;;;8.00;4.78;;;;;;;;;;5052296;28;20501;-72
2023/08/12 01:14:07;;;;;;;6.85;4.22;;;;;;;;;;5052054;28;20036;-73
2023/08/12 01:16:36;;;;;;;7.22;4.10;;;;;;;;;;5052377;28;20021;-72
2023/08/12 01:19:05;;;;;;;7.63;4.60;;;;;;;;;;5051715;28;20017;-73
2023/08/12 01:21:32;;;;;;;9.10;4.35;;;;;;;;;;5051897;28;20111;-72
2023/08/12 01:23:58;;;;;;;7.68;4.35;;;;;;;;;;5051955;28;20032;-73
2023/08/12 01:26:24;;;;;;;8.20;4.53;;;;;;;;;;5050588;28;20419;-73
2023/08/12 01:28:50;;;;;;;8.05;4.57;;;;;;;;;;5050875;28;20028;-73
2023/08/12 01:31:24;;;;;;;5.95;3.70;;;;;;;;;;5051293;28;20037;-72
2023/08/12 01:33:56;;;;;;;11.23;4.63;;;;;;;;;;5051610;28;20028;-73
2023/08/12 01:36:24;;;;;;;7.50;5.18;;;;;;;;;;5051368;28;20021;-73
2023/08/12 01:38:51;;;;;;;12.63;3.85;;;;;;;;;;5050643;28;20028;-73
2023/08/12 01:41:19;;;;;;;10.85;4.00;;;;;;;;;;5051310;28;20040;-73
2023/08/12 01:43:45;;;;;;;5.88;3.58;;;;;;;;;;5051344;28;20054;-73
2023/08/12 01:46:11;;;;;;;8.02;4.45;;;;;;;;;;5051397;28;20048;-73
2023/08/12 01:48:37;;;;;;;8.25;4.25;;;;;;;;;;5050644;28;20025;-73
2023/08/12 01:51:03;;;;;;;6.70;4.55;;;;;;;;;;5050927;28;20654;-73
2023/08/12 01:53:29;;;;;;;7.40;4.00;;;;;;;;;;5051493;28;20021;-73
2023/08/12 01:55:55;;;;;;;7.90;4.25;;;;;;;;;;5051275;28;20111;-73
2023/08/12 01:58:21;;;;;;;4.90;3.92;;;;;;;;;;5050474;28;20180;-73
2023/08/12 02:00:47;;;;;;;4.97;3.75;;;;;;;;;;5050793;28;20550;-72
2023/08/12 02:03:13;;;;;;;7.32;3.90;;;;;;;;;;5049910;28;20554;-75
2023/08/12 02:05:40;;;;;;;6.80;4.18;;;;;;;;;;5051103;28;20037;-73
2023/08/12 02:08:07;;;;;;;9.32;3.83;;;;;;;;;;5050437;28;20044;-72
2023/08/12 02:10:33;;;;;;;7.00;4.10;;;;;;;;;;5050928;28;20112;-72
2023/08/12 02:12:59;;;;;;;9.90;4.10;;;;;;;;;;5050763;28;20075;-72
2023/08/12 02:15:25;;;;;;;11.55;4.40;;;;;;;;;;5050841;28;20025;-72
2023/08/12 02:17:51;;;;;;;5.85;3.80;;;;;;;;;;5049878;28;20048;-72
2023/08/12 02:20:18;;;;;;;6.22;4.40;;;;;;;;;;5050865;28;20025;-72
2023/08/12 02:22:44;;;;;;;7.75;4.25;;;;;;;;;;5050565;28;20386;-72
2023/08/12 02:25:10;;;;;;;9.02;4.13;;;;;;;;;;5050765;28;20025;-72
2023/08/12 02:27:36;;;;;;;9.52;4.20;;;;;;;;;;5050143;28;20506;-72
2023/08/12 02:30:02;;;;;;;7.95;4.20;;;;;;;;;;5050618;28;20055;-72
2023/08/12 02:32:28;;;;;;;8.52;4.78;;;;;;;;;;5050403;28;20104;-71
2023/08/12 02:34:54;;;;;;;7.65;3.92;;;;;;;;;;5050862;28;20183;-72
2023/08/12 02:37:20;;;;;;;6.15;3.97;;;;;;;;;;5052051;28;20028;-72
2023/08/12 02:39:46;;;;;;;6.15;4.30;;;;;;;;;;5070572;28;20039;-72
2023/08/12 02:42:12;;;;;;;5.55;4.22;;;;;;;;;;5070506;28;20028;-72
2023/08/12 02:44:38;;;;;;;5.07;3.88;;;;;;;;;;5070761;28;20102;-72
2023/08/12 02:47:04;;;;;;;7.07;3.63;;;;;;;;;;5069968;28;20105;-72
2023/08/12 02:49:30;;;;;;;6.30;4.63;;;;;;;;;;5070581;28;20029;-72
2023/08/12 02:51:56;;;;;;;6.57;4.22;;;;;;;;;;5070544;28;20021;-73
2023/08/12 02:54:22;;;;;;;5.50;4.18;;;;;;;;;;5070533;28;20561;-72
2023/08/12 02:56:50;;;;;;;7.40;4.25;;;;;;;;;;5070423;28;20032;-71
2023/08/12 02:59:16;;;;;;;6.93;4.40;;;;;;;;;;5070183;28;20021;-71
2023/08/12 03:01:42;;;;;;;7.35;4.10;;;;;;;;;;5070289;28;20023;-72
2023/08/12 03:04:08;;;;;;;6.68;4.03;;;;;;;;;;5069245;28;20024;-72
2023/08/12 03:06:34;;;;;;;7.63;4.38;;;;;;;;;;5070239;28;20492;-72
2023/08/12 03:09:00;;;;;;;5.22;3.92;;;;;;;;;;5068743;28;20063;-72
2023/08/12 03:11:26;;;;;;;6.05;4.15;;;;;;;;;;5069967;28;20603;-72
2023/08/12 03:13:52;;;;;;;6.72;4.00;;;;;;;;;;5070483;28;20098;-71
2023/08/12 03:16:18;;;;;;;5.20;4.10;;;;;;;;;;5070239;28;20507;-72
2023/08/12 03:18:44;;;;;;;5.50;4.00;;;;;;;;;;5069611;28;20017;-71
2023/08/12 03:21:10;;;;;;;5.63;3.90;;;;;;;;;;5070100;28;20029;-72
2023/08/12 03:23:37;;;;;;;10.23;4.90;;;;;;;;;;5067608;28;20557;-72
2023/08/12 03:26:03;;;;;;;7.50;4.82;;;;;;;;;;5072446;28;20476;-72
2023/08/12 03:28:29;;;;;;;6.97;4.05;;;;;;;;;;5073283;28;20407;-72
2023/08/12 03:30:55;;;;;;;10.23;4.88;;;;;;;;;;5073404;28;20024;-71
2023/08/12 03:33:21;;;;;;;17.08;4.97;;;;;;;;;;5070907;28;20672;-71
2023/08/12 03:35:48;;;;;;;12.05;4.53;;;;;;;;;;5072342;28;20024;-72
2023/08/12 03:38:14;;;;;;;5.93;4.18;;;;;;;;;;5073012;28;20020;-72
2023/08/12 03:40:40;;;;;;;6.47;4.22;;;;;;;;;;5073496;28;20070;-73
2023/08/12 03:43:06;;;;;;;5.72;4.30;;;;;;;;;;5072129;28;20080;-72
2023/08/12 03:45:33;;;;;;;6.32;4.47;;;;;;;;;;5073567;28;20024;-71
2023/08/12 03:47:59;;;;;;;7.32;4.75;;;;;;;;;;5072959;28;20103;-72
2023/08/12 03:50:25;;;;;;;6.93;4.60;;;;;;;;;;5073151;28;20112;-72
2023/08/12 03:52:51;;;;;;;5.95;4.28;;;;;;;;;;5073118;28;20396;-72
2023/08/12 03:55:17;;;;;;;6.05;3.97;;;;;;;;;;5054763;28;20021;-74
2023/08/12 03:57:43;;;;;;;9.02;4.53;;;;;;;;;;5051247;28;20496;-71
2023/08/12 04:00:09;;;;;;;7.80;3.78;;;;;;;;;;5053132;28;20123;-72
2023/08/12 04:02:36;;;;;;;6.95;4.07;;;;;;;;;;5052927;28;20029;-72
2023/08/12 04:05:02;;;;;;;6.63;4.45;;;;;;;;;;5053066;28;20036;-72
2023/08/12 04:07:28;;;;;;;15.13;4.88;;;;;;;;;;5052341;28;20025;-72
2023/08/12 04:09:54;;;;;;;7.32;4.18;;;;;;;;;;5051439;28;20055;-72
2023/08/12 04:12:20;;;;;;;4.72;3.70;;;;;;;;;;5052634;28;20087;-72
2023/08/12 04:14:46;;;;;;;8.15;4.10;;;;;;;;;;5052793;28;20059;-72
2023/08/12 04:17:12;;;;;;;8.25;4.22;;;;;;;;;;5052042;28;20021;-72
2023/08/12 04:19:38;;;;;;;7.75;4.00;;;;;;;;;;5052603;28;20063;-72
2023/08/12 04:22:04;;;;;;;6.68;3.97;;;;;;;;;;5052536;28;20112;-72
2023/08/12 04:24:30;;;;;;;6.18;3.95;;;;;;;;;;5052613;28;20067;-73
2023/08/12 04:26:56;;;;;;;4.65;3.80;;;;;;;;;;5052083;28;20060;-72
2023/08/12 04:29:22;;;;;;;4.63;3.22;;;;;;;;;;5051856;28;20029;-72
2023/08/12 04:31:48;;;;;;;6.70;4.47;;;;;;;;;;5052219;28;20104;-72
2023/08/12 04:34:14;;;;;;;6.03;3.75;;;;;;;;;;5052552;28;20021;-72
2023/08/12 04:36:40;;;;;;;6.95;3.80;;;;;;;;;;5051882;28;20028;-73
2023/08/12 04:39:06;;;;;;;6.45;3.42;;;;;;;;;;5051778;28;20036;-72
2023/08/12 04:41:33;;;;;;;9.50;3.65;;;;;;;;;;5051059;28;20017;-74
2023/08/12 04:43:59;;;;;;;8.25;3.30;;;;;;;;;;5052327;28;20036;-73
2023/08/12 04:46:25;;;;;;;5.32;3.20;;;;;;;;;;5052352;28;20029;-73
2023/08/12 04:48:51;;;;;;;3.47;2.78;;;;;;;;;;5051593;28;20029;-73
2023/08/12 04:51:17;;;;;;;7.43;3.25;;;;;;;;;;5050647;28;20055;-73
2023/08/12 04:53:43;;;;;;;5.22;3.08;;;;;;;;;;5049848;28;20485;-73
2023/08/12 04:56:09;;;;;;;7.32;3.10;;;;;;;;;;5050776;28;20021;-73
2023/08/12 04:58:35;;;;;;;7.30;3.28;;;;;;;;;;5050022;28;20607;-72
2023/08/12 05:01:02;;;;;;;9.18;3.88;;;;;;;;;;5050642;28;20400;-73
2023/08/12 05:03:28;;;;;;;5.97;3.47;;;;;;;;;;5050750;28;20670;-73
2023/08/12 05:05:54;;;;;;;6.20;3.50;;;;;;;;;;5051931;28;20040;-72
2023/08/12 05:08:20;;;;;;;5.80;3.72;;;;;;;;;;5051048;28;20024;-72
2023/08/12 05:10:50;;;;;;;5.95;3.40;;;;;;;;;;5051792;28;20113;-72
2023/08/12 05:13:16;;;;;;;6.30;3.42;;;;;;;;;;5051830;28;20057;-73
2023/08/12 05:15:42;;;;;;;8.13;3.80;;;;;;;;;;5051911;28;20416;-73
2023/08/12 05:18:08;;;;;;;7.28;3.22;;;;;;;;;;5051125;28;20017;-73
2023/08/12 05:20:34;;;;;;;4.15;2.92;;;;;;;;;;5050268;28;20396;-73
2023/08/12 05:23:00;;;;;;;5.50;3.13;;;;;;;;;;5051458;28;20120;-73
2023/08/12 05:25:26;;;;;;;4.55;2.88;;;;;;;;;;5051697;28;20032;-72
2023/08/12 05:27:52;;;;;;;8.75;2.88;;;;;;;;;;5051345;28;20029;-73
2023/08/12 05:30:18;;;;;;;4.80;3.00;;;;;;;;;;5050120;28;20456;-72
2023/08/12 05:32:44;;;;;;;5.13;3.42;;;;;;;;;;5050905;28;20047;-73
2023/08/12 05:35:10;;;;;;;4.45;2.63;;;;;;;;;;5051162;28;20131;-72
2023/08/12 05:37:36;;;;;;;3.70;2.88;;;;;;;;;;5050612;28;20029;-73
2023/08/12 05:40:04;;;;;;;6.60;2.40;;;;;;;;;;5051654;28;20036;-73
2023/08/12 05:42:30;;;;;;;7.38;3.05;;;;;;;;;;5051273;28;20104;-73
2023/08/12 05:44:56;;;;;;;12.95;3.30;;;;;;;;;;5050132;28;20496;-73
2023/08/12 05:47:22;;;;;;;5.60;3.03;;;;;;;;;;5050048;28;20027;-73
2023/08/12 05:49:48;;;;;;;8.68;3.20;;;;;;;;;;5050793;28;20108;-72
2023/08/12 05:52:14;;;;;;;3.60;2.65;;;;;;;;;;5050983;28;20388;-72
2023/08/12 05:54:39;;;;;;;3.92;2.70;;;28.40;44.70;;;;;;5050087;28;20024;-73
2023/08/12 05:57:05;;;;;;;4.63;2.80;;;28.40;44.30;;;;;;5050222;28;20025;-73
2023/08/12 05:59:31;;;;;;;5.03;2.42;;;;;;;;;;5050699;28;20044;-72
2023/08/12 06:01:57;;;;;;;4.32;2.65;;;;;;;;;;5049361;28;20499;-73
2023/08/12 06:04:23;;;;;;;4.80;2.58;;;;;;;;;;5051028;28;20029;-72
2023/08/12 06:06:49;;;;;;;4.85;2.72;;;;;;;;;;5049480;28;20025;-73
2023/08/12 06:09:15;;;;;;;5.13;2.90;;;;;;;;;;5050339;28;20428;-72
2023/08/12 06:11:41;;;;;;;7.95;2.83;;;;;;;;;;5050511;28;20051;-74
2023/08/12 06:14:07;;;;;;;2.97;2.42;;;28.00;46.50;;;;;;5050888;28;20037;-74
2023/08/12 06:16:32;;;;;;;4.70;3.08;;;28.80;44.40;;;;;;5050595;28;20025;-73
2023/08/12 06:18:58;;;;;;;4.03;2.65;;;;;;;;;;5050384;28;20032;-73
2023/08/12 06:21:24;;;;;;;8.00;2.50;;;;;;;;;;5050785;28;20473;-73
2023/08/12 06:23:50;;;;;;;4.20;2.78;;;29.10;44.10;;;;;;5049307;28;20167;-73
2023/08/12 06:26:16;;;;;;;7.88;3.08;;;;;;;;;;5049244;28;20024;-73
2023/08/12 06:28:41;;;;;;;5.15;2.70;;;29.00;43.80;;;;;;5049994;28;20032;-73
2023/08/12 06:31:07;;;;;;;6.85;2.72;;;29.40;43.10;;;;;;5048887;28;20029;-74
2023/08/12 06:33:32;;;;;;;4.93;3.00;;;30.30;41.00;;;;;;5050647;28;20032;-74
2023/08/12 06:35:58;;;;;;;6.35;2.80;;;30.00;41.60;;;;;;5050805;28;20108;-74
2023/08/12 06:38:23;;;;;;;7.20;2.97;;;30.80;40.40;;;;;;5050054;28;20028;-74
2023/08/12 06:40:49;;;;;;;4.35;2.88;;;;;;;;;;5050395;28;20117;-74
2023/08/12 06:43:16;;;;;;;5.68;2.53;;;;;;;;;;5051106;28;20108;-74
2023/08/12 06:45:42;;;;;;;3.55;2.60;;;;;;;;;;5050966;28;20040;-74
2023/08/12 06:48:08;;;;;;;4.80;2.85;;;;;;;;;;5050225;28;20032;-74
2023/08/12 06:50:34;;;;;;;5.65;2.60;;;;;;;;;;5050553;28;20025;-73
2023/08/12 06:53:00;;;;;;;3.72;2.88;;;;;;;;;;5051185;28;20366;-73
2023/08/12 06:55:26;;;;;;;6.65;2.67;;;;;;;;;;5050380;28;20162;-74
2023/08/12 06:57:52;;;;;;;4.90;3.13;;;;;;;;;;5048326;28;20017;-74
2023/08/12 07:00:18;;;;;;;7.75;3.15;;;;;;;;;;5051399;28;20086;-74
2023/08/12 07:02:44;;;;;;;4.68;2.60;;;;;;;;;;5052700;28;20025;-74
2023/08/12 07:05:10;;;;;;;7.00;3.08;;;28.80;45.90;;;;;;5054135;28;20081;-74
2023/08/12 07:07:35;;;;;;;6.65;3.47;;;29.60;43.80;;;;;;5053305;28;20036;-74
2023/08/12 07:10:01;;;;;;;5.38;2.88;;;;;;;;;;5054093;28;20337;-73
2023/08/12 07:12:27;;;;;;;5.43;2.67;;;29.70;43.00;;;;;;5053734;28;20033;-73
2023/08/12 07:14:53;;;;;;;8.50;2.85;;;;;;;;;;5053663;28;20085;-73
2023/08/12 07:17:19;;;;;;;4.05;3.10;;;;;;;;;;5053447;28;20025;-73
2023/08/12 07:19:45;;;;;;;5.95;2.80;;;;;;;;;;5052216;28;20025;-73
2023/08/12 07:22:10;;;;;;;5.72;3.03;;;28.90;45.00;;;;;;5053785;28;20036;-73
2023/08/12 07:24:36;;;;;;;4.55;2.70;;;29.20;44.70;;;;;;5053891;28;20067;-73
2023/08/12 07:27:02;;;;;;;4.28;2.80;;;31.10;40.50;;;;;;5053129;28;20029;-73
2023/08/12 07:29:27;;;;;;;5.65;2.63;;;32.30;38.50;;;;;;5053544;28;20066;-73
2023/08/12 07:31:53;;;;;;;5.82;2.90;;;32.70;38.40;;;;;;5053570;28;20021;-74
2023/08/12 07:34:19;;;;;;;4.38;2.42;;;;;;;;;;5053574;28;20025;-73
2023/08/12 07:36:45;;;;;;;14.05;3.17;;;33.60;37.00;;;;;;5053622;28;20020;-75
2023/08/12 07:39:11;;;;;;;7.47;3.05;;;33.60;36.90;;;;;;5053425;28;20036;-74
2023/08/12 07:41:37;;;;;;;3.92;2.92;;;33.90;35.80;;;;;;5053502;28;20025;-74
2023/08/12 07:44:03;;;;;;;3.40;2.60;;;33.60;36.40;;;;;;5053417;28;20033;-74
2023/08/12 07:46:29;;;;;;;6.43;2.33;;;;;;;;;;5053591;28;20479;-74
2023/08/12 07:48:56;;;;;;;6.53;2.65;;;;;;;;;;5052673;28;20036;-74
2023/08/12 07:51:22;;;;;;;5.18;2.80;;;;;;;;;;5053557;28;20073;-74
2023/08/12 07:53:48;;;;;;;5.95;2.72;;;;;;;;;;5052268;28;20056;-73
2023/08/12 07:56:14;;;;;;;3.42;2.25;;;;;;;;;;5053302;28;20021;-73
2023/08/12 07:58:40;;;;;;;4.40;2.78;;;;;;;;;;5052611;28;20028;-74
2023/08/12 08:01:08;;;;;;;8.27;2.53;;;;;;;;;;5053290;28;20029;-74
2023/08/12 08:03:34;;;;;;;4.50;2.28;;;;;;;;;;5052293;28;20035;-73
2023/08/12 08:06:00;;;;;;;4.95;2.72;;;;;;;;;;5053133;28;20029;-73
2023/08/12 08:08:26;;;;;;;4.38;2.53;;;;;;;;;;5052356;28;20036;-74
2023/08/12 08:10:52;;;;;;;6.75;2.72;;;;;;;;;;5051807;28;20021;-74
2023/08/12 08:13:18;;;;;;;5.30;2.40;;;;;;;;;;5075132;22;20621;-75
2023/08/12 08:15:44;;;;;;;5.78;2.47;;;;;;;;;;5052877;28;20459;-75
2023/08/12 08:18:10;;;;;;;5.05;2.92;;;;;;;;;;5052333;28;20027;-75
2023/08/12 08:20:36;;;;;;;4.90;3.10;;;;;;;;;;5057631;28;20123;-75
2023/08/12 08:23:02;;;;;;;4.50;2.78;;;;;;;;;;5059889;28;20388;-75
2023/08/12 08:25:28;;;;;;;7.40;2.88;;;;;;;;;;5061595;28;20032;-75
2023/08/12 08:27:54;;;;;;;3.15;2.83;;;;;;;;;;5069388;28;20427;-75
2023/08/12 08:30:22;;;;;;;6.60;2.75;;;;;;;;;;5053797;28;20029;-75
2023/08/12 08:32:49;;;;;;;5.93;2.33;;;;;;;;;;5055155;28;20439;-75
2023/08/12 08:35:15;;;;;;;7.20;2.88;;;;;;;;;;5055273;28;20480;-75
2023/08/12 08:37:41;;;;;;;5.95;2.53;;;;;;;;;;5053873;28;20110;-75
2023/08/12 08:40:08;;;;;;;4.35;2.80;;;;;;;;;;5053328;28;20159;-75
2023/08/12 08:42:34;;;;;;;6.20;2.60;;;;;;;;;;5052498;28;20037;-75
2023/08/12 08:45:02;;;;;;;8.75;2.90;;;;;;;;;;5052381;28;20485;-73
2023/08/12 08:47:28;;;;;;;6.68;2.90;;;;;;;;;;5052432;28;20029;-74
2023/08/12 08:49:56;;;;;;;3.55;3.22;;;;;;;;;;5052527;28;20028;-73
2023/08/12 08:52:23;;;;;;;3.70;2.38;;;;;;;;;;5052122;28;20066;-74
2023/08/12 08:54:49;;;;;;;5.25;2.63;;;;;;;;;;5051025;28;20021;-74
2023/08/12 08:57:15;;;;;;;5.63;2.63;;;;;;;;;;5051845;28;20497;-74
2023/08/12 08:59:41;;;;;;;3.40;3.00;;;;;;;;;;5050739;28;20059;-74
2023/08/12 09:02:12;;;;;;;5.65;2.85;;;;;;;;;;5051994;28;20025;-74
2023/08/12 09:04:38;;;;;;;2.90;2.33;;;;;;;;;;5052167;28;20032;-74
2023/08/12 09:07:05;;;;;;;5.40;2.90;;;;;;;;;;5051456;28;20057;-74
2023/08/12 09:09:31;;;;;;;4.03;2.58;;;;;;;;;;5051776;28;20021;-74
2023/08/12 09:11:57;;;;;;;6.15;2.60;;;;;;;;;;5051675;28;20108;-74
2023/08/12 09:14:24;;;;;;;4.75;2.20;;;;;;;;;;5051745;28;20438;-75
2023/08/12 09:16:50;;;;;;;5.25;2.63;;;;;;;;;;5051797;28;20108;-74
2023/08/12 09:19:16;;;;;;;3.88;2.22;;;;;;;;;;5049738;28;20120;-74
2023/08/12 09:21:42;;;;;;;5.28;2.63;;;;;;;;;;5051448;28;20040;-74
2023/08/12 09:24:08;;;;;;;5.82;2.38;;;;;;;;;;5051650;28;20524;-75
2023/08/12 09:26:34;;;;;;;5.80;2.75;;;;;;;;;;5051163;28;20032;-74
2023/08/12 09:29:00;;;;;;;8.43;2.70;;;;;;;;;;5050819;28;20078;-74
2023/08/12 09:31:28;;;;;;;2.95;2.05;;;;;;;;;;5050154;28;20454;-74
2023/08/12 09:33:54;;;;;;;2.85;2.15;;;;;;;;;;5050545;28;20397;-74
2023/08/12 09:36:22;;;;;;;2.10;1.60;;;;;;;;;;5051469;28;20507;-74
2023/08/12 09:38:48;;;;;;;4.95;1.60;;;;;;;;;;5050904;28;20388;-74
2023/08/12 09:41:14;;;;;;;2.45;1.55;;;;;;;;;;5051697;28;20025;-74
2023/08/12 09:43:43;;;;;;;2.45;1.35;;;;;;;;;;5050126;28;20090;-75
2023/08/12 09:46:15;;;;;;;2.97;1.30;;;;;;;;;;5051319;28;20439;-74
2023/08/12 09:48:41;;;;;;;3.00;1.30;;;;;;;;;;5050420;28;20025;-75
2023/08/12 09:51:10;;;;;;;1.40;1.30;;;;;;;;;;5051542;28;20049;-75
2023/08/12 09:53:36;;;;;;;3.17;1.23;;;;;;;;;;5050347;28;20051;-74
2023/08/12 09:56:10;;;;;;;2.00;1.33;;;;;;;;;;5051264;28;20079;-74
2023/08/12 09:58:37;;;;;;;2.15;1.35;;;;;;;;;;5050568;28;20025;-74
2023/08/12 10:01:07;;;;;;;2.85;1.38;;;;;;;;;;5051190;28;20493;-74
2023/08/12 10:03:34;;;;;;;2.65;1.13;;;;;;;;;;5051118;28;20028;-75
2023/08/12 10:06:04;;;;;;;1.38;0.93;;;;;;;;;;5051110;28;20021;-74
2023/08/12 10:08:30;;;;;;;3.53;1.30;;;;;;;;;;5050899;28;20143;-74
2023/08/12 10:10:56;;;;;;;2.63;1.02;;;;;;;;;;5052071;28;20106;-75
2023/08/12 10:13:22;;;;;;;1.50;1.23;;;;;;;;;;5049510;28;20028;-74
2023/08/12 10:15:50;;;;;;;5.47;2.90;;;;;;;;;;5050946;28;20021;-74
2023/08/12 10:18:16;;;;;;;1.00;1.00;;;;;;;;;;5050319;28;20167;-74
2023/08/12 10:20:44;;;;;;;1.55;1.23;;;;;;;;;;5051004;28;20033;-75
2023/08/12 10:23:14;;;;;;;1.95;1.10;;;;;;;;;;5050965;28;20025;-75
2023/08/12 10:25:42;;;;;;;2.30;0.90;;;;;;;;;;5050997;28;20597;-74
2023/08/12 10:28:08;;;;;;;1.40;1.30;;;;;;;;;;5049442;28;20581;-74
2023/08/12 10:30:34;;;;;;;2.58;1.25;;;;;;;;;;5050884;28;20528;-75
2023/08/12 10:33:00;;;;;;;1.30;1.20;;;;;;;;;;5050821;28;20106;-75
2023/08/12 10:35:43;;;;;;;2.83;1.40;;;;;;;;;;5054081;28;20029;-74
2023/08/12 10:38:09;;;;;;;2.65;1.20;;;;;;;;;;5054403;28;20083;-74
2023/08/12 10:40:35;;;;;;;1.38;1.23;;;;;;;;;;5054836;28;20021;-73
2023/08/12 10:43:01;;;;;;;1.58;1.35;;;;;;;;;;5054996;28;20033;-74
2023/08/12 10:45:41;;;;;;;4.22;1.33;;;;;;;;;;5054567;28;20060;-74
2023/08/12 10:48:17;;;;;;;1.65;1.20;;;;;;;;;;5055022;28;20512;-74
2023/08/12 10:50:48;;;;;;;3.65;1.55;;;;;;;;;;5056036;28;20043;-73
2023/08/12 10:53:22;;;;;;;2.17;1.70;;;;;;;;;;5060196;28;20025;-74
2023/08/12 10:55:55;;;;;;;6.45;1.52;;;;;;;;;;5063073;28;20424;-74
2023/08/12 10:58:47;;;;;;;2.42;1.50;;;;;;;;;;5061180;28;20074;-74
2023/08/12 11:01:19;;;;;;;1.67;1.40;;;;;;;;;;5056909;28;20083;-74
2023/08/12 11:03:45;;;;;;;1.40;1.30;;;;;;;;;;5054571;28;20021;-74
2023/08/12 11:06:11;;;;;;;1.33;1.23;;;;;;;;;;5054433;28;20033;-74
2023/08/12 11:08:46;;;;;;;2.28;1.33;;;;;;;;;;5054002;28;20025;-73
2023/08/12 11:11:24;;;;;;;3.40;1.80;;;;;;;;;;5052733;28;20033;-74
2023/08/12 11:13:54;;;;;;;1.40;1.17;;;;;;;;;;5052623;28;20033;-74
2023/08/12 11:16:31;;;;;;;1.50;1.40;;;;;;;;;;5052661;28;20021;-73
2023/08/12 11:18:58;;;;;;;2.15;1.45;;;;;;;;;;5053840;28;20256;-74
2023/08/12 11:21:24;;;;;;;2.15;1.83;;;;;;;;;;5053959;28;20112;-74
2023/08/12 11:23:50;;;;;;;4.90;2.20;;;;;;;;;;5054066;28;20520;-74
2023/08/12 11:26:16;;;;;;;3.15;2.00;;;;;;;;;;5054085;28;20473;-74
2023/08/12 11:28:42;;;;;;;3.75;2.20;;;;;;;;;;5052424;28;20028;-74
2023/08/12 11:31:08;;;;;;;2.17;1.70;;;;;;;;;;5054491;28;20021;-74
2023/08/12 11:33:34;;;;;;;4.63;1.63;;;;;;;;;;5054960;28;20025;-74
2023/08/12 11:36:01;;;;;;;2.20;1.52;;;;;;;;;;5054697;28;20492;-74
2023/08/12 11:38:27;;;;;;;2.00;1.70;;;;;;;;;;5054104;28;20100;-74
2023/08/12 11:40:53;;;;;;;1.58;1.48;;;;;;;;;;5054674;28;20033;-74
2023/08/12 11:43:21;;;;;;;3.70;1.77;;;;;;;;;;5055719;28;20025;-74
2023/08/12 11:45:47;;;;;;;2.45;1.70;;;;;;;;;;5054430;28;20057;-74
2023/08/12 11:48:13;;;;;;;2.85;1.80;;;;;;;;;;5054695;28;20032;-74
2023/08/12 11:50:39;;;;;;;2.67;1.58;;;;;;;;;;5054276;28;20025;-74
2023/08/12 11:53:05;;;;;;;3.17;1.83;;;;;;;;;;5053609;28;20091;-74
2023/08/12 11:55:32;;;;;;;1.42;1.27;;;;;;;;;;5051376;28;20020;-74
2023/08/12 11:57:58;;;;;;;1.92;1.58;;;;;;;;;;5053401;28;20029;-74
2023/08/12 12:00:25;;;;;;;4.53;1.95;;;;;;;;;;5051855;28;20070;-74
2023/08/12 12:02:53;;;;;;;3.05;1.52;;;;;;;;;;5053151;28;20519;-73
2023/08/12 12:05:23;;;;;;;3.05;1.90;;;;;;;;;;5053092;28;20041;-74
2023/08/12 12:07:50;;;;;;;2.03;1.77;;;;;;;;;;5051193;28;20027;-75
2023/08/12 12:10:27;;;;;;;2.70;1.52;;;;;;;;;;5052929;28;20037;-74
2023/08/12 12:12:54;;;;;;;5.03;1.75;;;;;;;;;;5053127;28;20029;-74
2023/08/12 12:15:21;;;;;;;3.38;2.00;;;;;;;;;;5053020;28;20040;-74
2023/08/12 12:17:47;;;;;;;3.00;1.85;;;;;;;;;;5052488;28;20546;-74
2023/08/12 12:20:14;;;;;;;5.18;1.63;;;;;;;;;;5053453;28;20032;-73
2023/08/12 12:22:43;;;;;;;4.70;2.35;;;;;;;;;;5052707;28;20029;-73
2023/08/12 12:25:10;;;;;;;4.60;2.13;;;;;;;;;;5052996;28;20452;-74
2023/08/12 12:27:37;;;;;;;4.55;1.92;;;;;;;;;;5052006;28;20048;-74
2023/08/12 12:30:03;;;;;;;3.75;1.85;;;;;;;;;;5051599;28;20028;-75
2023/08/12 12:32:29;;;;;;;1.83;1.30;;;;;;;;;;5052577;28;20032;-75
2023/08/12 12:34:55;;;;;;;3.00;1.55;;;;;;;;;;5052489;28;20021;-75
2023/08/12 12:37:21;;;;;;;3.05;1.98;;;;;;;;;;5052097;28;20074;-75
2023/08/12 12:39:47;;;;;;;3.03;1.75;;;;;;;;;;5052477;28;20021;-75
2023/08/12 12:42:13;;;;;;;3.47;1.85;;;;;;;;;;5052408;28;20074;-74
2023/08/12 12:44:39;;;;;;;5.47;1.90;;;;;;;;;;5052781;28;20036;-74
2023/08/12 12:47:06;;;;;;;2.08;1.80;;;;;;;;;;5051826;28;20100;-74
2023/08/12 12:49:32;;;;;;;2.13;1.65;;;;;;;;;;5052280;28;20484;-74
2023/08/12 12:51:58;;;;;;;2.83;1.30;;;;;;;;;;5052413;28;20021;-75
2023/08/12 12:54:24;;;;;;;6.60;2.00;;;;;;;;;;5051657;28;20439;-73
2023/08/12 12:56:50;;;;;;;1.90;1.63;;;;;;;;;;5051840;28;20031;-74
2023/08/12 12:59:16;;;;;;;2.70;2.28;;;;;;;;;;5051807;28;20023;-73
2023/08/12 13:01:42;;;;;;;3.88;1.55;;;;;;;;;;5052519;28;20423;-74
2023/08/12 13:04:08;;;;;;;2.90;1.77;;;;;;;;;;5052133;28;20074;-73
2023/08/12 13:06:34;;;;;;;4.93;2.80;;;;;;;;;;5051874;28;20377;-74
2023/08/12 13:09:00;;;;;;;5.78;1.63;;;;;;;;;;5051725;28;20060;-74
2023/08/12 13:11:27;;;;;;;4.35;1.83;;;;;;;;;;5051709;28;20039;-74
2023/08/12 13:13:54;;;;;;;2.50;2.20;;;;;;;;;;5051667;28;20044;-74
2023/08/12 13:16:20;;;;;;;3.53;2.05;;;;;;;;;;5052619;28;20017;-74
2023/08/12 13:18:46;;;;;;;3.65;1.90;;;;;;;;;;5050001;28;20032;-74
2023/08/12 13:21:12;;;;;;;3.40;1.80;;;;;;;;;;5050930;28;20032;-75
2023/08/12 13:23:38;;;;;;;4.22;2.08;;;;;;;;;;5052490;28;20025;-75
2023/08/12 13:26:04;;;;;;;2.85;1.85;;;;;;;;;;5058012;28;20029;-75
2023/08/12 13:28:30;;;;;;;4.57;2.05;;;;;;;;;;5059427;28;20029;-74
2023/08/12 13:30:56;;;;;;;2.97;2.25;;;;;;;;;;5059729;28;20111;-75
2023/08/12 13:33:22;;;;;;;2.60;1.50;;;;;;;;;;5058764;28;20068;-74
2023/08/12 13:35:48;;;;;;;2.80;1.95;;;;;;;;;;5051975;28;20393;-75
2023/08/12 13:38:14;;;;;;;6.32;2.15;;;;;;;;;;5050848;28;20025;-74
2023/08/12 13:40:40;;;;;;;3.20;2.03;;;;;;;;;;5051449;28;20036;-74
2023/08/12 13:43:06;;;;;;;2.45;1.58;;;;;;;;;;5051554;28;20032;-74
2023/08/12 13:45:32;;;;;;;8.95;2.00;;;;;;;;;;5049889;28;20400;-74
2023/08/12 13:48:07;;;;;;;4.25;2.20;;;;;;;;;;5056091;28;20024;-73
2023/08/12 13:50:33;;;;;;;3.92;1.80;;;;;;;;;;5051318;28;20032;-76
2023/08/12 13:53:00;;;;;;;7.07;2.65;;;;;;;;;;5051598;28;20021;-75
2023/08/12 13:55:26;;;;;;;5.90;2.53;;;;;;;;;;5050394;28;20493;-74
2023/08/12 13:57:53;;;;;;;5.30;2.95;;;;;;;;;;5050230;28;20021;-74
2023/08/12 14:00:19;;;;;;;9.02;3.03;;;;;;;;;;5051434;28;20381;-74
2023/08/12 14:02:47;;;;;;;7.10;3.22;;;;;;;;;;5051281;28;20021;-74
2023/08/12 14:05:13;;;;;;;5.32;2.67;;;;;;;;;;5049670;28;20545;-74
2023/08/12 14:07:39;;;;;;;12.32;3.13;;;;;;;;;;5050633;28;20068;-75
2023/08/12 14:10:05;;;;;;;5.30;3.05;;;;;;;;;;5050109;28;20496;-74
2023/08/12 14:12:31;;;;;;;5.43;3.05;;;;;;;;;;5052253;28;20040;-73
2023/08/12 14:14:57;;;;;;;8.07;3.30;;;;;;;;;;5066916;22;20098;-73
2023/08/12 14:17:25;;;;;;;2.90;2.60;;;;;;;;;;5050124;28;20044;-73
2023/08/12 14:19:51;;;;;;;5.95;3.10;;;;;;;;;;5050852;28;20029;-72
2023/08/12 14:22:17;;;;;;;5.00;2.40;;;;;;;;;;5032654;28;20029;-73
2023/08/12 14:24:44;;;;;;;3.40;2.45;;;;;;;;;;5050585;28;20540;-73
2023/08/12 14:27:10;;;;;;;7.03;2.90;;;;;;;;;;5048868;28;20471;-73
2023/08/12 14:29:36;;;;;;;8.10;2.58;;;;;;;;;;5049457;28;20028;-73